Time,TemperatureF,DewpointF,PressureIn,WindDirection,WindDirectionDegrees,WindSpeedMPH,WindSpeedGustMPH,Humidity,HourlyPrecipIn,Conditions,Clouds,dailyrainin,SoftwareType,DateUTC
2013-01-11 00:00:00,36.3,36.3,29.52,SSW,200,12.0,15.0,100,0.00,,,0.00,VWS V14.01,2013-01-11 06:00:00,
2013-01-11 00:03:00,36.3,36.3,29.54,SSW,200,12.0,13.0,100,0.00,,,0.00,VWS V14.01,2013-01-11 06:03:00,
2013-01-11 00:08:00,36.3,36.3,29.54,SSW,196,12.0,13.0,100,0.00,,,0.00,VWS V14.01,2013-01-11 06:08:00,
2013-01-11 00:13:00,36.3,36.3,29.54,SW,222,11.0,13.0,100,0.00,,,0.00,VWS V14.01,2013-01-11 06:13:00,
2013-01-11 00:15:00,36.5,36.5,29.51,SSW,192,8.0,14.0,100,0.00,,,0.00,VWS V14.01,2013-01-11 06:15:00,
2013-01-11 00:18:00,36.3,36.3,29.54,SSW,206,10.0,12.0,100,0.00,,,0.00,VWS V14.01,2013-01-11 06:18:00,
2013-01-11 00:23:00,36.3,36.3,29.54,SSW,213,8.0,12.0,100,0.00,,,0.00,VWS V14.01,2013-01-11 06:23:00,
2013-01-11 00:28:00,36.3,36.3,29.54,SSW,205,10.0,12.0,100,0.00,,,0.00,VWS V14.01,2013-01-11 06:28:00,
2013-01-11 00:30:00,36.5,36.5,29.50,SSW,193,12.0,13.0,100,0.00,,,0.00,VWS V14.01,2013-01-11 06:30:00,
2013-01-11 00:33:00,36.5,36.5,29.53,SSW,199,10.0,12.0,100,0.00,,,0.00,VWS V14.01,2013-01-11 06:33:00,
2013-01-11 00:38:00,36.5,36.5,29.53,SW,215,10.0,13.0,100,0.00,,,0.00,VWS V14.01,2013-01-11 06:38:00,
2013-01-11 00:43:00,36.5,36.5,29.53,SSW,192,11.0,13.0,100,0.00,,,0.00,VWS V14.01,2013-01-11 06:43:00,
2013-01-11 00:45:00,36.8,36.8,29.50,South,191,10.0,16.0,100,0.00,,,0.00,VWS V14.01,2013-01-11 06:45:00,
2013-01-11 00:48:00,36.5,36.5,29.53,SSW,192,10.0,13.0,100,0.00,,,0.00,VWS V14.01,2013-01-11 06:48:00,
2013-01-11 00:53:00,36.5,36.5,29.53,SSW,196,7.0,15.0,100,0.00,,,0.00,VWS V14.01,2013-01-11 06:53:00,
2013-01-11 00:58:00,36.3,36.3,29.53,South,191,8.0,15.0,100,0.00,,,0.00,VWS V14.01,2013-01-11 06:58:00,
2013-01-11 01:00:00,37.0,37.0,29.49,SSW,192,14.0,18.0,100,0.00,,,0.00,VWS V14.01,2013-01-11 07:00:00,
2013-01-11 01:03:00,36.3,36.3,29.52,SSW,198,9.0,12.0,100,0.00,,,0.00,VWS V14.01,2013-01-11 07:03:00,
2013-01-11 01:08:00,36.5,36.5,29.52,SSW,195,8.0,14.0,100,0.00,,,0.00,VWS V14.01,2013-01-11 07:08:00,
2013-01-11 01:13:00,36.5,36.5,29.52,SSW,198,7.0,14.0,100,0.00,,,0.00,VWS V14.01,2013-01-11 07:13:00,
2013-01-11 01:15:00,37.2,37.2,29.48,SSW,200,12.0,18.0,100,0.00,,,0.00,VWS V14.01,2013-01-11 07:15:00,
2013-01-11 01:18:00,36.5,36.5,29.51,SSW,195,7.0,11.0,100,0.00,,,0.00,VWS V14.01,2013-01-11 07:18:00,
2013-01-11 01:23:00,36.5,36.5,29.51,SSW,192,7.0,11.0,100,0.00,,,0.00,VWS V14.01,2013-01-11 07:23:00,
2013-01-11 01:28:00,36.5,36.5,29.51,South,186,7.0,12.0,100,0.00,,,0.00,VWS V14.01,2013-01-11 07:28:00,
2013-01-11 01:30:00,37.3,37.3,29.47,SSW,198,5.0,17.0,100,0.00,,,0.00,VWS V14.01,2013-01-11 07:30:00,
2013-01-11 01:33:00,36.6,36.6,29.50,SSW,196,13.0,16.0,100,0.00,,,0.00,VWS V14.01,2013-01-11 07:33:00,
2013-01-11 01:38:00,36.6,36.6,29.50,SSW,195,11.0,16.0,100,0.00,,,0.00,VWS V14.01,2013-01-11 07:38:00,
2013-01-11 01:43:00,36.8,36.8,29.50,South,185,8.0,16.0,100,0.00,,,0.00,VWS V14.01,2013-01-11 07:43:00,
2013-01-11 01:45:00,37.3,37.3,29.46,South,184,4.0,10.0,100,0.00,,,0.00,VWS V14.01,2013-01-11 07:45:00,
2013-01-11 01:48:00,36.8,36.8,29.50,SSW,195,7.0,12.0,100,0.00,,,0.00,VWS V14.01,2013-01-11 07:48:00,
2013-01-11 01:53:00,36.9,36.9,29.50,SSW,200,10.0,16.0,100,0.00,,,0.00,VWS V14.01,2013-01-11 07:53:00,
2013-01-11 01:58:00,36.9,36.9,29.50,SSW,199,16.0,16.0,100,0.00,,,0.00,VWS V14.01,2013-01-11 07:58:00,
2013-01-11 02:00:00,37.6,37.6,29.45,South,178,7.0,12.0,100,0.00,,,0.00,VWS V14.01,2013-01-11 08:00:00,
2013-01-11 02:03:00,37.0,37.0,29.49,SSW,196,10.0,16.0,100,0.00,,,0.00,VWS V14.01,2013-01-11 08:03:00,
2013-01-11 02:08:00,37.0,37.0,29.49,SSW,199,12.0,18.0,100,0.00,,,0.00,VWS V14.01,2013-01-11 08:08:00,
2013-01-11 02:13:00,37.2,37.2,29.49,SSW,198,14.0,18.0,100,0.00,,,0.00,VWS V14.01,2013-01-11 08:13:00,
2013-01-11 02:15:00,37.8,37.8,29.44,South,181,8.0,17.0,100,0.00,,,0.00,VWS V14.01,2013-01-11 08:15:00,
2013-01-11 02:18:00,37.2,37.2,29.48,SSW,200,12.0,14.0,100,0.00,,,0.00,VWS V14.01,2013-01-11 08:18:00,
2013-01-11 02:23:00,37.3,37.3,29.48,SSW,199,13.0,17.0,100,0.00,,,0.00,VWS V14.01,2013-01-11 08:23:00,
2013-01-11 02:28:00,37.3,37.3,29.48,SSW,198,7.0,17.0,100,0.00,,,0.00,VWS V14.01,2013-01-11 08:28:00,
2013-01-11 02:30:00,37.8,37.8,29.44,SSW,199,8.0,12.0,100,0.00,,,0.00,VWS V14.01,2013-01-11 08:30:00,
2013-01-11 02:33:00,37.3,37.3,29.47,South,189,3.0,10.0,100,0.00,,,0.00,VWS V14.01,2013-01-11 08:33:00,
2013-01-11 02:38:00,37.3,37.3,29.47,South,181,6.0,10.0,100,0.00,,,0.00,VWS V14.01,2013-01-11 08:38:00,
2013-01-11 02:43:00,37.3,37.3,29.47,South,184,6.0,10.0,100,0.00,,,0.00,VWS V14.01,2013-01-11 08:43:00,
2013-01-11 02:45:00,38.0,38.0,29.44,SSW,198,7.0,13.0,100,0.00,,,0.00,VWS V14.01,2013-01-11 08:45:00,
2013-01-11 02:48:00,37.3,37.3,29.46,South,184,5.0,9.0,100,0.00,,,0.00,VWS V14.01,2013-01-11 08:48:00,
2013-01-11 02:53:00,37.3,37.3,29.46,South,182,7.0,12.0,100,0.00,,,0.00,VWS V14.01,2013-01-11 08:53:00,
2013-01-11 02:58:00,37.5,37.5,29.46,South,188,5.0,12.0,100,0.00,,,0.00,VWS V14.01,2013-01-11 08:58:00,
2013-01-11 03:00:00,38.2,38.2,29.43,SSW,192,7.0,14.0,100,0.00,,,0.00,VWS V14.01,2013-01-11 09:00:00,
2013-01-11 03:03:00,37.6,37.6,29.45,SSW,206,10.0,13.0,100,0.00,,,0.00,VWS V14.01,2013-01-11 09:03:00,
2013-01-11 03:08:00,37.6,37.6,29.45,South,191,10.0,17.0,100,0.00,,,0.00,VWS V14.01,2013-01-11 09:08:00,
2013-01-11 03:13:00,37.8,37.8,29.45,SSW,192,5.0,17.0,100,0.00,,,0.00,VWS V14.01,2013-01-11 09:13:00,
2013-01-11 03:15:00,38.3,38.3,29.42,SSW,193,8.0,16.0,100,0.00,,,0.00,VWS V14.01,2013-01-11 09:15:00,
2013-01-11 03:18:00,37.8,37.8,29.44,South,179,4.0,8.0,100,0.00,,,0.00,VWS V14.01,2013-01-11 09:18:00,
2013-01-11 03:23:00,37.8,37.8,29.44,South,191,6.0,11.0,100,0.00,,,0.00,VWS V14.01,2013-01-11 09:23:00,
2013-01-11 03:28:00,37.8,37.8,29.44,SSW,199,11.0,12.0,100,0.00,,,0.00,VWS V14.01,2013-01-11 09:28:00,
2013-01-11 03:30:00,38.2,38.2,29.40,SSW,192,5.0,14.0,100,0.00,,,0.00,VWS V14.01,2013-01-11 09:30:00,
2013-01-11 03:33:00,37.8,37.8,29.44,SSW,199,6.0,11.0,100,0.00,,,0.00,VWS V14.01,2013-01-11 09:33:00,
2013-01-11 03:38:00,37.9,37.9,29.44,South,189,11.0,12.0,100,0.00,,,0.00,VWS V14.01,2013-01-11 09:38:00,
2013-01-11 03:43:00,37.9,37.9,29.44,SSW,193,7.0,13.0,100,0.00,,,0.00,VWS V14.01,2013-01-11 09:43:00,
2013-01-11 03:45:00,38.2,38.2,29.40,South,191,5.0,11.0,100,0.00,,,0.00,VWS V14.01,2013-01-11 09:45:00,
2013-01-11 03:48:00,38.0,38.0,29.44,SSW,199,12.0,12.0,100,0.00,,,0.00,VWS V14.01,2013-01-11 09:48:00,
2013-01-11 03:53:00,38.2,38.2,29.44,SSW,205,9.0,13.0,100,0.00,,,0.00,VWS V14.01,2013-01-11 09:53:00,
2013-01-11 03:58:00,38.2,38.2,29.44,SSW,205,12.0,13.0,100,0.00,,,0.00,VWS V14.01,2013-01-11 09:58:00,
2013-01-11 04:00:00,38.6,38.6,29.39,SSW,199,9.0,12.0,100,0.00,,,0.00,VWS V14.01,2013-01-11 10:00:00,
2013-01-11 04:03:00,38.2,38.2,29.43,South,181,7.0,14.0,100,0.00,,,0.00,VWS V14.01,2013-01-11 10:03:00,
2013-01-11 04:08:00,38.3,38.3,29.43,South,185,10.0,16.0,100,0.00,,,0.00,VWS V14.01,2013-01-11 10:08:00,
2013-01-11 04:13:00,38.3,38.3,29.43,South,184,10.0,16.0,100,0.00,,,0.00,VWS V14.01,2013-01-11 10:13:00,
2013-01-11 04:15:00,38.6,38.6,29.38,South,189,7.0,14.0,100,0.00,,,0.00,VWS V14.01,2013-01-11 10:15:00,
2013-01-11 04:18:00,38.3,38.3,29.42,South,189,5.0,14.0,100,0.00,,,0.00,VWS V14.01,2013-01-11 10:18:00,
2013-01-11 04:23:00,38.2,38.2,29.42,South,186,5.0,14.0,100,0.00,,,0.00,VWS V14.01,2013-01-11 10:23:00,
2013-01-11 04:28:00,38.2,38.2,29.42,South,182,6.0,14.0,100,0.00,,,0.00,VWS V14.01,2013-01-11 10:28:00,
2013-01-11 04:30:00,38.6,38.6,29.38,SSW,196,8.0,11.0,100,0.00,,,0.00,VWS V14.01,2013-01-11 10:30:00,
2013-01-11 04:33:00,38.2,38.2,29.40,SSW,192,5.0,8.0,100,0.00,,,0.00,VWS V14.01,2013-01-11 10:33:00,
2013-01-11 04:38:00,38.2,38.2,29.40,South,185,2.0,11.0,100,0.00,,,0.00,VWS V14.01,2013-01-11 10:38:00,
2013-01-11 04:43:00,38.2,38.2,29.40,South,191,7.0,11.0,100,0.00,,,0.00,VWS V14.01,2013-01-11 10:43:00,
2013-01-11 04:45:00,38.6,38.6,29.38,SSW,199,9.0,12.0,100,0.00,,,0.00,VWS V14.01,2013-01-11 10:45:00,
2013-01-11 04:48:00,38.3,38.3,29.40,SSW,198,6.0,10.0,100,0.00,,,0.00,VWS V14.01,2013-01-11 10:48:00,
2013-01-11 04:53:00,38.3,38.3,29.40,SSW,199,3.0,10.0,100,0.00,,,0.00,VWS V14.01,2013-01-11 10:53:00,
2013-01-11 04:58:00,38.5,38.5,29.40,SSW,200,10.0,10.0,100,0.00,,,0.00,VWS V14.01,2013-01-11 10:58:00,
2013-01-11 05:00:00,38.6,38.6,29.37,SSW,199,8.0,13.0,100,0.00,,,0.00,VWS V14.01,2013-01-11 11:00:00,
2013-01-11 05:03:00,38.6,38.6,29.39,SSW,209,7.0,12.0,100,0.00,,,0.00,VWS V14.01,2013-01-11 11:03:00,
2013-01-11 05:08:00,38.6,38.6,29.39,SSW,206,10.0,13.0,100,0.00,,,0.00,VWS V14.01,2013-01-11 11:08:00,
2013-01-11 05:13:00,38.6,38.6,29.39,SSW,206,5.0,14.0,100,0.00,,,0.00,VWS V14.01,2013-01-11 11:13:00,
2013-01-11 05:15:00,38.3,38.3,29.35,South,188,12.0,14.0,100,0.00,,,0.00,VWS V14.01,2013-01-11 11:15:00,
2013-01-11 05:18:00,38.5,38.5,29.38,SSW,193,8.0,11.0,100,0.00,,,0.00,VWS V14.01,2013-01-11 11:18:00,
2013-01-11 05:23:00,38.5,38.5,29.38,SSW,192,7.0,11.0,100,0.00,,,0.00,VWS V14.01,2013-01-11 11:23:00,
2013-01-11 05:28:00,38.6,38.6,29.38,SSW,202,10.0,11.0,100,0.00,,,0.00,VWS V14.01,2013-01-11 11:28:00,
2013-01-11 05:30:00,38.5,38.5,29.34,South,181,10.0,12.0,100,0.00,,,0.00,VWS V14.01,2013-01-11 11:30:00,
2013-01-11 05:33:00,38.6,38.6,29.38,South,191,10.0,12.0,100,0.00,,,0.00,VWS V14.01,2013-01-11 11:33:00,
2013-01-11 05:38:00,38.6,38.6,29.38,SSW,212,9.0,12.0,100,0.00,,,0.00,VWS V14.01,2013-01-11 11:38:00,
2013-01-11 05:43:00,38.6,38.6,29.38,SSW,206,8.0,12.0,100,0.00,,,0.00,VWS V14.01,2013-01-11 11:43:00,
2013-01-11 05:45:00,38.6,38.6,29.34,SSW,200,10.0,16.0,100,0.00,,,0.00,VWS V14.01,2013-01-11 11:45:00,
2013-01-11 05:48:00,38.6,38.6,29.38,SSW,210,10.0,11.0,100,0.00,,,0.00,VWS V14.01,2013-01-11 11:48:00,
2013-01-11 05:53:00,38.8,38.8,29.38,SSW,209,10.0,12.0,100,0.00,,,0.00,VWS V14.01,2013-01-11 11:53:00,
2013-01-11 05:58:00,38.6,38.6,29.38,SSW,205,7.0,13.0,100,0.00,,,0.00,VWS V14.01,2013-01-11 11:58:00,
2013-01-11 06:00:00,38.6,38.6,29.32,SSW,200,14.0,17.0,100,0.00,,,0.00,VWS V14.01,2013-01-11 12:00:00,
2013-01-11 06:03:00,38.5,38.5,29.37,SSW,210,10.0,13.0,100,0.00,,,0.00,VWS V14.01,2013-01-11 12:03:00,
2013-01-11 06:08:00,38.5,38.5,29.37,SSW,205,10.0,14.0,100,0.00,,,0.00,VWS V14.01,2013-01-11 12:08:00,
2013-01-11 06:13:00,38.3,38.3,29.37,SSW,203,10.0,14.0,100,0.00,,,0.00,VWS V14.01,2013-01-11 12:13:00,
2013-01-11 06:15:00,38.6,38.6,29.33,SSW,199,11.0,18.0,100,0.00,,,0.00,VWS V14.01,2013-01-11 12:15:00,
2013-01-11 06:18:00,38.3,38.3,29.35,SSW,198,7.0,12.0,100,0.00,,,0.00,VWS V14.01,2013-01-11 12:18:00,
2013-01-11 06:23:00,38.3,38.3,29.35,SSW,203,7.0,12.0,100,0.00,,,0.00,VWS V14.01,2013-01-11 12:23:00,
2013-01-11 06:28:00,38.3,38.3,29.35,SSW,199,11.0,12.0,100,0.00,,,0.00,VWS V14.01,2013-01-11 12:28:00,
2013-01-11 06:30:00,38.5,38.5,29.33,SSW,206,12.0,18.0,100,0.00,,,0.00,VWS V14.01,2013-01-11 12:30:00,
2013-01-11 06:33:00,38.5,38.5,29.34,SSW,193,13.0,14.0,100,0.00,,,0.00,VWS V14.01,2013-01-11 12:33:00,
2013-01-11 06:38:00,38.6,38.6,29.34,SW,216,11.0,16.0,100,0.00,,,0.00,VWS V14.01,2013-01-11 12:38:00,
2013-01-11 06:43:00,38.6,38.6,29.34,SSW,213,8.0,16.0,100,0.00,,,0.00,VWS V14.01,2013-01-11 12:43:00,
2013-01-11 06:45:00,38.5,38.5,29.33,SW,216,12.0,17.0,100,0.00,,,0.00,VWS V14.01,2013-01-11 12:45:00,
2013-01-11 06:48:00,38.6,38.6,29.34,SSW,208,11.0,12.0,100,0.00,,,0.00,VWS V14.01,2013-01-11 12:48:00,
2013-01-11 06:53:00,38.6,38.6,29.34,SSW,202,11.0,14.0,100,0.00,,,0.00,VWS V14.01,2013-01-11 12:53:00,
2013-01-11 06:58:00,38.6,38.6,29.34,SSW,199,13.0,17.0,100,0.00,,,0.00,VWS V14.01,2013-01-11 12:58:00,
2013-01-11 07:00:00,38.5,38.5,29.33,SSW,213,7.0,17.0,100,0.00,,,0.00,VWS V14.01,2013-01-11 13:00:00,
2013-01-11 07:03:00,38.6,38.6,29.32,SSW,200,11.0,18.0,100,0.00,,,0.00,VWS V14.01,2013-01-11 13:03:00,
2013-01-11 07:08:00,38.6,38.6,29.32,SSW,210,11.0,18.0,100,0.00,,,0.00,VWS V14.01,2013-01-11 13:08:00,
2013-01-11 07:13:00,38.5,38.5,29.32,SW,217,11.0,18.0,100,0.00,,,0.00,VWS V14.01,2013-01-11 13:13:00,
2013-01-11 07:15:00,38.5,38.5,29.34,SSW,213,8.0,12.0,100,0.00,,,0.00,VWS V14.01,2013-01-11 13:15:00,
2013-01-11 07:18:00,38.6,38.6,29.33,SSW,202,10.0,17.0,100,0.00,,,0.00,VWS V14.01,2013-01-11 13:18:00,
2013-01-11 07:23:00,38.5,38.5,29.33,SSW,203,11.0,17.0,100,0.00,,,0.00,VWS V14.01,2013-01-11 13:23:00,
2013-01-11 07:28:00,38.5,38.5,29.33,SW,220,18.0,18.0,100,0.00,,,0.00,VWS V14.01,2013-01-11 13:28:00,
2013-01-11 07:30:00,38.3,38.3,29.33,SW,216,12.0,13.0,100,0.00,,,0.00,VWS V14.01,2013-01-11 13:30:00,
2013-01-11 07:33:00,38.5,38.5,29.33,SSW,205,11.0,14.0,100,0.00,,,0.00,VWS V14.01,2013-01-11 13:33:00,
2013-01-11 07:38:00,38.5,38.5,29.33,SSW,193,14.0,14.0,100,0.00,,,0.00,VWS V14.01,2013-01-11 13:38:00,
2013-01-11 07:43:00,38.5,38.5,29.33,SW,219,14.0,17.0,100,0.00,,,0.00,VWS V14.01,2013-01-11 13:43:00,
2013-01-11 07:45:00,38.2,38.2,29.34,WSW,240,7.0,12.0,100,0.00,,,0.00,VWS V14.01,2013-01-11 13:45:00,
2013-01-11 07:48:00,38.5,38.5,29.33,SW,217,9.0,17.0,100,0.00,,,0.00,VWS V14.01,2013-01-11 13:48:00,
2013-01-11 07:53:00,38.5,38.5,29.33,SW,219,12.0,17.0,100,0.00,,,0.00,VWS V14.01,2013-01-11 13:53:00,
2013-01-11 07:58:00,38.5,38.5,29.33,SSW,213,10.0,17.0,100,0.00,,,0.00,VWS V14.01,2013-01-11 13:58:00,
2013-01-11 08:00:00,38.2,38.2,29.33,WSW,241,3.0,9.0,100,0.00,,,0.00,VWS V14.01,2013-01-11 14:00:00,
2013-01-11 08:03:00,38.5,38.5,29.33,SSW,213,8.0,9.0,100,0.00,,,0.00,VWS V14.01,2013-01-11 14:03:00,
2013-01-11 08:09:00,38.5,38.5,29.33,SSW,212,7.0,12.0,100,0.00,,,0.00,VWS V14.01,2013-01-11 14:09:00,
2013-01-11 08:14:00,38.5,38.5,29.33,SSW,213,6.0,12.0,100,0.00,,,0.00,VWS V14.01,2013-01-11 14:14:00,
2013-01-11 08:15:00,38.2,38.2,29.34,SSW,208,6.0,10.0,100,0.00,,,0.00,VWS V14.01,2013-01-11 14:15:00,
2013-01-11 08:19:00,38.5,38.5,29.34,SSW,206,8.0,13.0,100,0.00,,,0.00,VWS V14.01,2013-01-11 14:19:00,
2013-01-11 08:24:00,38.3,38.3,29.34,SSW,212,8.0,13.0,100,0.00,,,0.00,VWS V14.01,2013-01-11 14:24:00,
2013-01-11 08:29:00,38.3,38.3,29.34,SSW,195,10.0,13.0,100,0.00,,,0.00,VWS V14.01,2013-01-11 14:29:00,
2013-01-11 08:30:00,38.0,38.0,29.34,SW,216,7.0,11.0,100,0.00,,,0.00,VWS V14.01,2013-01-11 14:30:00,
2013-01-11 08:34:00,38.3,38.3,29.33,SSW,210,10.0,12.0,100,0.00,,,0.00,VWS V14.01,2013-01-11 14:34:00,
2013-01-11 08:38:00,38.3,38.3,29.33,SW,216,8.0,12.0,100,0.00,,,0.00,VWS V14.01,2013-01-11 14:38:00,
2013-01-11 08:44:00,38.3,38.3,29.33,SSW,209,8.0,12.0,100,0.00,,,0.00,VWS V14.01,2013-01-11 14:44:00,
2013-01-11 08:45:00,38.0,38.0,29.34,SW,227,4.0,10.0,100,0.00,,,0.00,VWS V14.01,2013-01-11 14:45:00,
2013-01-11 08:49:00,38.2,38.2,29.34,WSW,241,7.0,9.0,100,0.00,,,0.00,VWS V14.01,2013-01-11 14:49:00,
2013-01-11 08:54:00,38.2,38.2,29.34,WSW,241,3.0,9.0,100,0.00,,,0.00,VWS V14.01,2013-01-11 14:54:00,
2013-01-11 08:59:00,38.2,38.2,29.34,WSW,241,2.0,9.0,100,0.00,,,0.00,VWS V14.01,2013-01-11 14:59:00,
2013-01-11 09:00:00,38.0,38.0,29.34,SW,229,0.0,7.0,100,0.01,,,0.01,VWS V14.01,2013-01-11 15:00:00,
2013-01-11 09:04:00,38.2,38.2,29.33,WSW,241,5.0,7.0,100,0.00,,,0.00,VWS V14.01,2013-01-11 15:04:00,
2013-01-11 09:09:00,38.2,38.2,29.33,SW,219,7.0,10.0,100,0.00,,,0.00,VWS V14.01,2013-01-11 15:09:00,
2013-01-11 09:14:00,38.2,38.2,29.33,SSW,208,5.0,10.0,100,0.00,,,0.00,VWS V14.01,2013-01-11 15:14:00,
2013-01-11 09:15:00,38.0,38.0,29.33,West,280,5.0,5.0,100,0.01,,,0.01,VWS V14.01,2013-01-11 15:15:00,
2013-01-11 09:19:00,38.2,38.2,29.34,SSW,206,7.0,8.0,100,0.00,,,0.00,VWS V14.01,2013-01-11 15:19:00,
2013-01-11 09:24:00,38.0,38.0,29.34,SW,224,7.0,11.0,100,0.00,,,0.00,VWS V14.01,2013-01-11 15:24:00,
2013-01-11 09:29:00,38.0,38.0,29.34,SSW,210,7.0,11.0,100,0.00,,,0.00,VWS V14.01,2013-01-11 15:29:00,
2013-01-11 09:30:00,38.2,38.2,29.33,SSW,212,0.0,7.0,100,0.01,,,0.01,VWS V14.01,2013-01-11 15:30:00,
2013-01-11 09:34:00,38.0,38.0,29.34,SW,224,8.0,10.0,100,0.00,,,0.00,VWS V14.01,2013-01-11 15:34:00,
2013-01-11 09:39:00,38.0,38.0,29.34,SW,224,7.0,10.0,100,0.00,,,0.00,VWS V14.01,2013-01-11 15:39:00,
2013-01-11 09:44:00,38.0,38.0,29.34,SW,227,7.0,10.0,100,0.00,,,0.00,VWS V14.01,2013-01-11 15:44:00,
2013-01-11 09:45:00,37.9,37.9,29.33,SSW,213,0.0,2.0,100,0.01,,,0.01,VWS V14.01,2013-01-11 15:45:00,
2013-01-11 09:49:00,38.0,38.0,29.34,SW,227,5.0,7.0,100,0.00,,,0.00,VWS V14.01,2013-01-11 15:49:00,
2013-01-11 09:54:00,38.0,38.0,29.34,SW,229,2.0,7.0,100,0.00,,,0.00,VWS V14.01,2013-01-11 15:54:00,
2013-01-11 09:59:00,38.0,38.0,29.34,SW,229,0.0,7.0,100,0.01,,,0.01,VWS V14.01,2013-01-11 15:59:00,
2013-01-11 10:00:00,38.0,38.0,29.33,SSW,213,0.0,0.0,100,0.01,,,0.01,VWS V14.01,2013-01-11 16:00:00,
2013-01-11 10:04:00,38.0,38.0,29.34,SW,229,1.0,2.0,100,0.01,,,0.01,VWS V14.01,2013-01-11 16:04:00,
2013-01-11 10:09:00,38.0,38.0,29.34,SW,229,0.0,2.0,100,0.01,,,0.01,VWS V14.01,2013-01-11 16:09:00,
2013-01-11 10:14:00,37.9,37.9,29.34,WNW,301,0.0,5.0,100,0.01,,,0.01,VWS V14.01,2013-01-11 16:14:00,
2013-01-11 10:15:00,37.6,37.6,29.33,SW,216,0.0,2.0,100,0.00,,,0.01,VWS V14.01,2013-01-11 16:15:00,
2013-01-11 10:19:00,38.0,38.0,29.33,SSW,213,5.0,7.0,100,0.01,,,0.01,VWS V14.01,2013-01-11 16:19:00,
2013-01-11 10:24:00,38.0,38.0,29.33,SSW,210,2.0,7.0,100,0.01,,,0.01,VWS V14.01,2013-01-11 16:24:00,
2013-01-11 10:29:00,38.2,38.2,29.33,SSW,210,0.0,7.0,100,0.01,,,0.01,VWS V14.01,2013-01-11 16:29:00,
2013-01-11 10:30:00,37.8,37.8,29.34,SW,220,1.0,2.0,100,0.00,,,0.01,VWS V14.01,2013-01-11 16:30:00,
2013-01-11 10:34:00,38.0,38.0,29.33,SSW,213,0.0,2.0,100,0.01,,,0.01,VWS V14.01,2013-01-11 16:34:00,
2013-01-11 10:39:00,38.0,38.0,29.33,SSW,213,0.0,2.0,100,0.01,,,0.01,VWS V14.01,2013-01-11 16:39:00,
2013-01-11 10:44:00,38.0,38.0,29.33,SSW,213,0.0,2.0,100,0.01,,,0.01,VWS V14.01,2013-01-11 16:44:00,
2013-01-11 10:45:00,37.8,37.8,29.31,North,349,0.0,1.0,100,0.00,,,0.01,VWS V14.01,2013-01-11 16:45:00,
2013-01-11 10:49:00,37.9,37.9,29.33,SSW,213,0.0,0.0,100,0.01,,,0.01,VWS V14.01,2013-01-11 16:49:00,
2013-01-11 10:54:00,38.0,38.0,29.33,SSW,213,0.0,0.0,100,0.01,,,0.01,VWS V14.01,2013-01-11 16:54:00,
2013-01-11 10:59:00,38.0,38.0,29.33,SSW,213,0.0,0.0,100,0.01,,,0.01,VWS V14.01,2013-01-11 16:59:00,
2013-01-11 11:00:00,38.0,38.0,29.31,North,359,0.0,1.0,100,0.00,,,0.01,VWS V14.01,2013-01-11 17:00:00,
2013-01-11 11:04:00,38.0,38.0,29.33,SSW,213,0.0,0.0,100,0.00,,,0.01,VWS V14.01,2013-01-11 17:04:00,
2013-01-11 11:09:00,37.8,37.8,29.33,SW,216,0.0,1.0,100,0.00,,,0.01,VWS V14.01,2013-01-11 17:09:00,
2013-01-11 11:14:00,37.6,37.6,29.33,SW,217,0.0,2.0,100,0.00,,,0.01,VWS V14.01,2013-01-11 17:14:00,
2013-01-11 11:15:00,38.2,38.2,29.31,NE,45,2.0,6.0,100,0.00,,,0.01,VWS V14.01,2013-01-11 17:15:00,
2013-01-11 11:19:00,37.6,37.6,29.33,SW,216,0.0,2.0,100,0.00,,,0.01,VWS V14.01,2013-01-11 17:19:00,
2013-01-11 11:24:00,37.6,37.6,29.33,SW,216,0.0,2.0,100,0.00,,,0.01,VWS V14.01,2013-01-11 17:24:00,
2013-01-11 11:29:00,37.8,37.8,29.33,SW,216,0.0,2.0,100,0.00,,,0.01,VWS V14.01,2013-01-11 17:29:00,
2013-01-11 11:30:00,38.2,38.2,29.31,NE,45,4.0,8.0,100,0.00,,,0.01,VWS V14.01,2013-01-11 17:30:00,
2013-01-11 11:34:00,37.8,37.8,29.34,West,274,0.0,1.0,100,0.00,,,0.01,VWS V14.01,2013-01-11 17:34:00,
2013-01-11 11:39:00,37.8,37.8,29.34,North,349,0.0,1.0,100,0.00,,,0.01,VWS V14.01,2013-01-11 17:39:00,
2013-01-11 11:44:00,37.8,37.8,29.34,North,349,0.0,1.0,100,0.00,,,0.01,VWS V14.01,2013-01-11 17:44:00,
2013-01-11 11:45:00,38.3,38.3,29.30,NE,48,7.0,10.0,100,0.00,,,0.01,VWS V14.01,2013-01-11 17:45:00,
2013-01-11 11:49:00,37.9,37.9,29.31,North,349,1.0,1.0,100,0.00,,,0.01,VWS V14.01,2013-01-11 17:49:00,
2013-01-11 11:54:00,37.9,37.9,29.31,North,359,0.0,1.0,100,0.00,,,0.01,VWS V14.01,2013-01-11 17:54:00,
2013-01-11 11:59:00,38.0,38.0,29.31,North,359,0.0,1.0,100,0.00,,,0.01,VWS V14.01,2013-01-11 17:59:00,
2013-01-11 12:00:00,38.6,38.6,29.29,NE,48,5.0,10.0,100,0.00,,,0.01,VWS V14.01,2013-01-11 18:00:00,
2013-01-11 12:04:00,38.0,38.0,29.31,North,3,0.0,0.0,100,0.00,,,0.01,VWS V14.01,2013-01-11 18:04:00,
2013-01-11 12:09:00,38.2,38.2,29.31,NE,48,2.0,5.0,100,0.00,,,0.01,VWS V14.01,2013-01-11 18:09:00,
2013-01-11 12:14:00,38.2,38.2,29.31,NE,45,2.0,5.0,100,0.00,,,0.01,VWS V14.01,2013-01-11 18:14:00,
2013-01-11 12:15:00,38.8,38.8,29.27,NE,48,5.0,10.0,100,0.00,,,0.01,VWS V14.01,2013-01-11 18:15:00,
2013-01-11 12:19:00,38.2,38.2,29.31,NE,45,6.0,8.0,100,0.00,,,0.01,VWS V14.01,2013-01-11 18:19:00,
2013-01-11 12:24:00,38.2,38.2,29.31,NE,45,2.0,8.0,100,0.00,,,0.01,VWS V14.01,2013-01-11 18:24:00,
2013-01-11 12:29:00,38.2,38.2,29.31,NE,45,3.0,8.0,100,0.00,,,0.01,VWS V14.01,2013-01-11 18:29:00,
2013-01-11 12:30:00,38.9,38.9,29.27,NE,48,3.0,10.0,100,0.00,,,0.01,VWS V14.01,2013-01-11 18:30:00,
2013-01-11 12:34:00,38.3,38.3,29.31,NE,45,5.0,8.0,100,0.00,,,0.01,VWS V14.01,2013-01-11 18:34:00,
2013-01-11 12:39:00,38.3,38.3,29.31,NE,45,5.0,8.0,100,0.00,,,0.01,VWS V14.01,2013-01-11 18:39:00,
2013-01-11 12:44:00,38.3,38.3,29.31,NE,45,6.0,10.0,100,0.00,,,0.01,VWS V14.01,2013-01-11 18:44:00,
2013-01-11 12:45:00,39.1,39.1,29.27,NE,37,8.0,10.0,100,0.00,,,0.01,VWS V14.01,2013-01-11 18:45:00,
2013-01-11 12:49:00,38.5,38.5,29.30,NE,48,3.0,7.0,100,0.00,,,0.01,VWS V14.01,2013-01-11 18:49:00,
2013-01-11 12:54:00,38.5,38.5,29.30,NE,48,5.0,10.0,100,0.00,,,0.01,VWS V14.01,2013-01-11 18:54:00,
2013-01-11 12:59:00,38.5,38.5,29.30,NE,48,6.0,10.0,100,0.00,,,0.01,VWS V14.01,2013-01-11 18:59:00,
2013-01-11 13:00:00,39.2,39.2,29.27,NE,47,7.0,11.0,100,0.00,,,0.01,VWS V14.01,2013-01-11 19:00:00,
2013-01-11 13:04:00,38.6,38.6,29.29,NE,48,5.0,7.0,100,0.00,,,0.01,VWS V14.01,2013-01-11 19:04:00,
2013-01-11 13:09:00,38.6,38.6,29.29,NE,48,5.0,10.0,100,0.00,,,0.01,VWS V14.01,2013-01-11 19:09:00,
2013-01-11 13:14:00,38.6,38.6,29.29,NE,48,7.0,10.0,100,0.00,,,0.01,VWS V14.01,2013-01-11 19:14:00,
2013-01-11 13:15:00,39.5,39.5,29.27,NE,35,5.0,11.0,100,0.00,,,0.01,VWS V14.01,2013-01-11 19:15:00,
2013-01-11 13:19:00,38.8,38.8,29.27,NE,42,10.0,10.0,100,0.00,,,0.01,VWS V14.01,2013-01-11 19:19:00,
2013-01-11 13:24:00,38.9,38.9,29.27,NE,42,7.0,10.0,100,0.00,,,0.01,VWS V14.01,2013-01-11 19:24:00,
2013-01-11 13:29:00,38.9,38.9,29.27,NE,48,5.0,10.0,100,0.00,,,0.01,VWS V14.01,2013-01-11 19:29:00,
2013-01-11 13:30:00,39.5,39.5,29.27,NE,44,7.0,11.0,100,0.00,,,0.01,VWS V14.01,2013-01-11 19:30:00,
2013-01-11 13:34:00,38.9,38.9,29.27,NE,48,7.0,7.0,100,0.00,,,0.01,VWS V14.01,2013-01-11 19:34:00,
2013-01-11 13:39:00,39.1,39.1,29.27,NE,38,7.0,10.0,100,0.00,,,0.01,VWS V14.01,2013-01-11 19:39:00,
2013-01-11 13:44:00,39.2,39.2,29.27,NE,35,7.0,10.0,100,0.00,,,0.01,VWS V14.01,2013-01-11 19:44:00,
2013-01-11 13:45:00,39.8,39.8,29.26,North,3,6.0,10.0,100,0.00,,,0.01,VWS V14.01,2013-01-11 19:45:00,
2013-01-11 13:49:00,39.1,39.1,29.27,NE,48,7.0,11.0,100,0.00,,,0.01,VWS V14.01,2013-01-11 19:49:00,
2013-01-11 13:54:00,39.2,39.2,29.27,NE,49,6.0,11.0,100,0.00,,,0.01,VWS V14.01,2013-01-11 19:54:00,
2013-01-11 13:59:00,39.2,39.2,29.27,NE,47,6.0,11.0,100,0.00,,,0.01,VWS V14.01,2013-01-11 19:59:00,
2013-01-11 14:00:00,39.8,39.8,29.28,NNE,28,8.0,8.0,100,0.00,,,0.01,VWS V14.01,2013-01-11 20:00:00,
2013-01-11 14:04:00,39.3,39.3,29.27,NE,47,7.0,8.0,100,0.00,,,0.01,VWS V14.01,2013-01-11 20:04:00,
2013-01-11 14:09:00,39.3,39.3,29.27,NE,38,5.0,11.0,100,0.00,,,0.01,VWS V14.01,2013-01-11 20:09:00,
2013-01-11 14:14:00,39.3,39.3,29.27,NE,35,5.0,11.0,100,0.00,,,0.01,VWS V14.01,2013-01-11 20:14:00,
2013-01-11 14:15:00,39.6,39.6,29.29,NNE,32,2.0,10.0,100,0.00,,,0.01,VWS V14.01,2013-01-11 20:15:00,
2013-01-11 14:19:00,39.5,39.5,29.27,NE,40,8.0,11.0,100,0.00,,,0.01,VWS V14.01,2013-01-11 20:19:00,
2013-01-11 14:24:00,39.3,39.3,29.27,NE,41,7.0,11.0,100,0.00,,,0.01,VWS V14.01,2013-01-11 20:24:00,
2013-01-11 14:29:00,39.5,39.5,29.27,NE,37,9.0,11.0,100,0.00,,,0.01,VWS V14.01,2013-01-11 20:29:00,
2013-01-11 14:30:00,39.6,39.6,29.29,NNE,31,5.0,8.0,100,0.00,,,0.01,VWS V14.01,2013-01-11 20:30:00,
2013-01-11 14:34:00,39.5,39.5,29.27,NE,48,10.0,10.0,100,0.00,,,0.01,VWS V14.01,2013-01-11 20:34:00,
2013-01-11 14:39:00,39.5,39.5,29.27,NE,41,7.0,10.0,100,0.00,,,0.01,VWS V14.01,2013-01-11 20:39:00,
2013-01-11 14:44:00,39.8,39.8,29.27,North,3,6.0,10.0,100,0.00,,,0.01,VWS V14.01,2013-01-11 20:44:00,
2013-01-11 14:45:00,39.6,39.6,29.30,North,11,5.0,10.0,100,0.00,,,0.01,VWS V14.01,2013-01-11 20:45:00,
2013-01-11 14:49:00,39.9,39.9,29.26,North,3,6.0,7.0,100,0.00,,,0.01,VWS V14.01,2013-01-11 20:49:00,
2013-01-11 14:54:00,39.6,39.6,29.26,North,3,5.0,7.0,100,0.00,,,0.01,VWS V14.01,2013-01-11 20:54:00,
2013-01-11 14:59:00,39.8,39.8,29.26,NNE,28,7.0,8.0,100,0.00,,,0.01,VWS V14.01,2013-01-11 20:59:00,
2013-01-11 15:00:00,37.9,37.9,29.33,North,3,11.0,21.0,100,0.00,,,0.01,VWS V14.01,2013-01-11 21:00:00,
2013-01-11 15:04:00,39.6,39.6,29.28,NNE,32,6.0,10.0,100,0.00,,,0.01,VWS V14.01,2013-01-11 21:04:00,
2013-01-11 15:09:00,39.6,39.6,29.28,NNE,32,6.0,10.0,100,0.00,,,0.01,VWS V14.01,2013-01-11 21:09:00,
2013-01-11 15:14:00,39.6,39.6,29.28,NNE,32,2.0,10.0,100,0.00,,,0.01,VWS V14.01,2013-01-11 21:14:00,
2013-01-11 15:15:00,36.3,36.3,29.34,North,359,19.0,22.0,100,0.00,,,0.01,VWS V14.01,2013-01-11 21:15:00,
2013-01-11 15:19:00,39.8,39.8,29.29,NNE,18,5.0,6.0,100,0.00,,,0.01,VWS V14.01,2013-01-11 21:19:00,
2013-01-11 15:24:00,39.8,39.8,29.29,NNE,30,6.0,8.0,100,0.00,,,0.01,VWS V14.01,2013-01-11 21:24:00,
2013-01-11 15:29:00,39.8,39.8,29.29,NNE,31,7.0,8.0,100,0.00,,,0.01,VWS V14.01,2013-01-11 21:29:00,
2013-01-11 15:30:00,35.3,35.3,29.37,North,0,22.0,28.0,100,0.00,,,0.01,VWS V14.01,2013-01-11 21:30:00,
2013-01-11 15:34:00,39.6,39.6,29.29,NNE,31,10.0,10.0,100,0.00,,,0.01,VWS V14.01,2013-01-11 21:34:00,
2013-01-11 15:39:00,39.6,39.6,29.29,NNE,31,5.0,10.0,100,0.00,,,0.01,VWS V14.01,2013-01-11 21:39:00,
2013-01-11 15:44:00,39.6,39.6,29.29,NNE,28,2.0,10.0,100,0.00,,,0.01,VWS V14.01,2013-01-11 21:44:00,
2013-01-11 15:45:00,34.9,34.9,29.38,North,357,12.0,26.0,100,0.00,,,0.01,VWS V14.01,2013-01-11 21:45:00,
2013-01-11 15:49:00,39.5,39.5,29.30,North,359,7.0,10.0,100,0.00,,,0.01,VWS V14.01,2013-01-11 21:49:00,
2013-01-11 15:54:00,39.3,39.3,29.30,North,359,8.0,10.0,100,0.00,,,0.01,VWS V14.01,2013-01-11 21:54:00,
2013-01-11 15:59:00,38.3,38.3,29.30,North,0,14.0,21.0,100,0.00,,,0.01,VWS V14.01,2013-01-11 21:59:00,
2013-01-11 16:00:00,34.3,33.3,29.40,North,7,6.0,26.0,96,0.00,,,0.01,VWS V14.01,2013-01-11 22:00:00,
2013-01-11 16:04:00,37.2,37.2,29.33,North,350,18.0,18.0,100,0.00,,,0.01,VWS V14.01,2013-01-11 22:04:00,
2013-01-11 16:09:00,36.6,36.6,29.33,North,359,17.0,21.0,100,0.00,,,0.01,VWS V14.01,2013-01-11 22:09:00,
2013-01-11 16:14:00,36.3,36.3,29.33,North,11,16.0,22.0,100,0.00,,,0.01,VWS V14.01,2013-01-11 22:14:00,
2013-01-11 16:15:00,34.3,32.2,29.41,North,352,19.0,25.0,92,0.00,,,0.01,VWS V14.01,2013-01-11 22:15:00,
2013-01-11 16:19:00,36.0,36.0,29.34,North,359,12.0,22.0,100,0.00,,,0.01,VWS V14.01,2013-01-11 22:19:00,
2013-01-11 16:24:00,35.8,35.8,29.34,North,4,17.0,26.0,100,0.00,,,0.01,VWS V14.01,2013-01-11 22:24:00,
2013-01-11 16:29:00,35.5,35.5,29.34,NNW,333,17.0,26.0,100,0.00,,,0.01,VWS V14.01,2013-01-11 22:29:00,
2013-01-11 16:30:00,33.7,29.7,29.43,North,359,12.0,22.0,85,0.00,,,0.01,VWS V14.01,2013-01-11 22:30:00,
2013-01-11 16:34:00,35.0,35.0,29.37,North,352,21.0,26.0,100,0.00,,,0.01,VWS V14.01,2013-01-11 22:34:00,
2013-01-11 16:39:00,34.9,34.9,29.37,NNE,20,14.0,26.0,100,0.00,,,0.01,VWS V14.01,2013-01-11 22:39:00,
2013-01-11 16:44:00,34.9,34.9,29.37,North,359,12.0,26.0,100,0.00,,,0.01,VWS V14.01,2013-01-11 22:44:00,
2013-01-11 16:45:00,33.1,29.7,29.46,North,359,12.0,22.0,87,0.00,,,0.01,VWS V14.01,2013-01-11 22:45:00,
2013-01-11 16:49:00,34.7,34.7,29.38,North,3,19.0,26.0,100,0.00,,,0.01,VWS V14.01,2013-01-11 22:49:00,
2013-01-11 16:54:00,34.6,34.3,29.38,NNE,16,6.0,26.0,99,0.00,,,0.01,VWS V14.01,2013-01-11 22:54:00,
2013-01-11 16:59:00,34.3,33.8,29.38,NNE,14,6.0,26.0,98,0.00,,,0.01,VWS V14.01,2013-01-11 22:59:00,
2013-01-11 17:00:00,31.9,27.6,29.48,NNW,347,16.0,26.0,84,0.00,,,0.01,VWS V14.01,2013-01-11 23:00:00,
2013-01-11 17:04:00,34.3,33.8,29.40,North,0,7.0,9.0,98,0.00,,,0.01,VWS V14.01,2013-01-11 23:04:00,
2013-01-11 17:09:00,34.4,33.6,29.40,NNW,330,12.0,17.0,97,0.00,,,0.01,VWS V14.01,2013-01-11 23:09:00,
2013-01-11 17:14:00,34.3,32.2,29.40,North,359,21.0,22.0,92,0.00,,,0.01,VWS V14.01,2013-01-11 23:14:00,
2013-01-11 17:15:00,31.6,27.9,29.52,North,0,15.0,22.0,86,0.00,,,0.01,VWS V14.01,2013-01-11 23:15:00,
2013-01-11 17:19:00,34.3,32.0,29.41,NNW,333,7.0,20.0,91,0.00,,,0.01,VWS V14.01,2013-01-11 23:19:00,
2013-01-11 17:24:00,34.3,32.8,29.41,North,0,7.0,20.0,94,0.00,,,0.01,VWS V14.01,2013-01-11 23:24:00,
2013-01-11 17:29:00,33.8,31.2,29.41,North,0,12.0,22.0,90,0.00,,,0.01,VWS V14.01,2013-01-11 23:29:00,
2013-01-11 17:30:00,31.2,29.4,29.54,North,359,5.0,22.0,93,0.00,,,0.01,VWS V14.01,2013-01-11 23:30:00,
2013-01-11 17:34:00,33.5,29.8,29.43,North,359,18.0,18.0,86,0.00,,,0.01,VWS V14.01,2013-01-11 23:34:00,
2013-01-11 17:39:00,33.2,28.9,29.43,North,350,21.0,22.0,84,0.00,,,0.01,VWS V14.01,2013-01-11 23:39:00,
2013-01-11 17:44:00,33.1,29.1,29.43,North,359,13.0,22.0,85,0.00,,,0.01,VWS V14.01,2013-01-11 23:44:00,
2013-01-11 17:45:00,30.4,29.1,29.56,NNW,329,5.0,17.0,95,0.00,,,0.01,VWS V14.01,2013-01-11 23:45:00,
2013-01-11 17:49:00,32.9,29.5,29.46,NNW,332,7.0,14.0,87,0.00,,,0.01,VWS V14.01,2013-01-11 23:49:00,
2013-01-11 17:54:00,32.5,28.8,29.46,North,359,17.0,25.0,86,0.00,,,0.01,VWS V14.01,2013-01-11 23:54:00,
2013-01-11 17:59:00,32.1,28.4,29.46,North,359,12.0,26.0,86,0.00,,,0.01,VWS V14.01,2013-01-11 23:59:00,
2013-01-11 18:00:00,26.6,25.4,29.59,NW,316,7.0,17.0,95,0.00,,,0.01,VWS V14.01,2013-01-12 00:00:00,
2013-01-11 18:04:00,32.1,28.1,29.48,North,359,9.0,22.0,85,0.00,,,0.01,VWS V14.01,2013-01-12 00:04:00,
2013-01-11 18:09:00,31.8,27.2,29.48,North,359,6.0,22.0,83,0.00,,,0.01,VWS V14.01,2013-01-12 00:09:00,
2013-01-11 18:14:00,31.6,27.3,29.48,NW,319,5.0,22.0,84,0.00,,,0.01,VWS V14.01,2013-01-12 00:14:00,
2013-01-11 18:15:00,25.1,25.1,29.62,NNW,346,9.0,19.0,100,0.00,,,0.01,VWS V14.01,2013-01-12 00:15:00,
2013-01-11 18:19:00,31.5,27.5,29.52,North,359,12.0,22.0,85,0.00,,,0.01,VWS V14.01,2013-01-12 00:19:00,
2013-01-11 18:24:00,31.5,28.6,29.52,NNW,340,2.0,22.0,89,0.00,,,0.01,VWS V14.01,2013-01-12 00:24:00,
2013-01-11 18:29:00,31.2,28.9,29.52,NNW,339,3.0,22.0,91,0.00,,,0.01,VWS V14.01,2013-01-12 00:29:00,
2013-01-11 18:30:00,23.9,23.9,29.64,NW,315,4.0,13.0,100,0.00,,,0.01,VWS V14.01,2013-01-12 00:30:00,
2013-01-11 18:34:00,31.2,30.2,29.54,NW,320,10.0,17.0,96,0.00,,,0.01,VWS V14.01,2013-01-12 00:34:00,
2013-01-11 18:39:00,31.2,30.2,29.54,NNW,332,2.0,17.0,96,0.00,,,0.01,VWS V14.01,2013-01-12 00:39:00,
2013-01-11 18:44:00,30.6,29.1,29.54,NNW,333,3.0,17.0,94,0.00,,,0.01,VWS V14.01,2013-01-12 00:44:00,
2013-01-11 18:45:00,23.3,23.3,29.65,North,0,6.0,17.0,100,0.00,,,0.01,VWS V14.01,2013-01-12 00:45:00,
2013-01-11 18:49:00,29.4,28.9,29.56,NNW,332,5.0,14.0,98,0.00,,,0.01,VWS V14.01,2013-01-12 00:49:00,
2013-01-11 18:54:00,27.8,27.3,29.56,NNW,335,10.0,14.0,98,0.00,,,0.01,VWS V14.01,2013-01-12 00:54:00,
2013-01-11 18:59:00,26.7,25.7,29.56,NNW,332,5.0,17.0,96,0.00,,,0.01,VWS V14.01,2013-01-12 00:59:00,
2013-01-11 19:00:00,22.9,22.9,29.67,North,359,7.0,14.0,100,0.00,,,0.01,VWS V14.01,2013-01-12 01:00:00,
2013-01-11 19:04:00,26.4,25.7,29.59,North,356,10.0,14.0,97,0.00,,,0.01,VWS V14.01,2013-01-12 01:04:00,
2013-01-11 19:09:00,25.8,25.3,29.59,North,359,5.0,17.0,98,0.00,,,0.01,VWS V14.01,2013-01-12 01:09:00,
2013-01-11 19:14:00,25.1,25.1,29.59,North,357,11.0,17.0,100,0.00,,,0.01,VWS V14.01,2013-01-12 01:14:00,
2013-01-11 19:15:00,21.8,19.8,29.70,NW,325,0.0,11.0,92,0.00,,,0.01,VWS V14.01,2013-01-12 01:15:00,
2013-01-11 19:19:00,24.8,24.8,29.62,WNW,302,5.0,12.0,100,0.00,,,0.01,VWS V14.01,2013-01-12 01:19:00,
2013-01-11 19:24:00,24.1,24.1,29.62,NNW,347,6.0,12.0,100,0.00,,,0.01,VWS V14.01,2013-01-12 01:24:00,
2013-01-11 19:29:00,23.9,23.9,29.62,North,0,5.0,13.0,100,0.00,,,0.01,VWS V14.01,2013-01-12 01:29:00,
2013-01-11 19:30:00,21.3,19.3,29.72,NNW,342,9.0,19.0,92,0.00,,,0.01,VWS V14.01,2013-01-12 01:30:00,
2013-01-11 19:34:00,23.8,23.8,29.64,North,0,12.0,12.0,100,0.00,,,0.01,VWS V14.01,2013-01-12 01:34:00,
2013-01-11 19:39:00,23.6,23.6,29.64,NW,306,11.0,14.0,100,0.00,,,0.01,VWS V14.01,2013-01-12 01:39:00,
2013-01-11 19:44:00,23.3,23.3,29.64,North,359,3.0,17.0,100,0.00,,,0.01,VWS V14.01,2013-01-12 01:44:00,
2013-01-11 19:45:00,20.8,18.3,29.73,NNW,336,4.0,12.0,90,0.00,,,0.01,VWS V14.01,2013-01-12 01:45:00,
2013-01-11 19:49:00,23.3,23.3,29.65,North,359,9.0,10.0,100,0.00,,,0.01,VWS V14.01,2013-01-12 01:49:00,
2013-01-11 19:54:00,23.0,23.0,29.65,NNW,336,5.0,13.0,100,0.00,,,0.01,VWS V14.01,2013-01-12 01:54:00,
2013-01-11 19:59:00,22.9,22.9,29.65,NNW,332,10.0,14.0,100,0.00,,,0.01,VWS V14.01,2013-01-12 01:59:00,
2013-01-11 20:00:00,20.5,18.5,29.74,NW,306,3.0,10.0,92,0.00,,,0.01,VWS V14.01,2013-01-12 02:00:00,
2013-01-11 20:04:00,22.7,22.7,29.67,NW,319,5.0,8.0,100,0.00,,,0.01,VWS V14.01,2013-01-12 02:04:00,
2013-01-11 20:09:00,22.2,22.2,29.67,NNW,336,8.0,11.0,100,0.00,,,0.01,VWS V14.01,2013-01-12 02:09:00,
2013-01-11 20:14:00,21.9,19.9,29.67,North,353,7.0,11.0,92,0.00,,,0.01,VWS V14.01,2013-01-12 02:14:00,
2013-01-11 20:15:00,20.2,17.2,29.75,North,359,2.0,11.0,88,0.00,,,0.01,VWS V14.01,2013-01-12 02:15:00,
2013-01-11 20:19:00,21.6,18.6,29.70,North,357,6.0,19.0,88,0.00,,,0.01,VWS V14.01,2013-01-12 02:19:00,
2013-01-11 20:24:00,21.4,18.4,29.70,NNW,337,5.0,19.0,88,0.00,,,0.01,VWS V14.01,2013-01-12 02:24:00,
2013-01-11 20:29:00,21.3,19.6,29.70,NNW,328,3.0,19.0,93,0.00,,,0.01,VWS V14.01,2013-01-12 02:29:00,
2013-01-11 20:30:00,19.9,15.6,29.76,NW,325,2.0,7.0,83,0.00,,,0.01,VWS V14.01,2013-01-12 02:30:00,
2013-01-11 20:34:00,21.3,20.3,29.72,NNW,330,3.0,12.0,96,0.00,,,0.01,VWS V14.01,2013-01-12 02:34:00,
2013-01-11 20:39:00,21.1,20.6,29.72,NW,322,7.0,12.0,98,0.00,,,0.01,VWS V14.01,2013-01-12 02:39:00,
2013-01-11 20:44:00,20.8,19.4,29.72,NNW,343,5.0,12.0,94,0.00,,,0.01,VWS V14.01,2013-01-12 02:44:00,
2013-01-11 20:45:00,19.5,15.7,29.78,NW,309,3.0,7.0,85,0.00,,,0.01,VWS V14.01,2013-01-12 02:45:00,
2013-01-11 20:49:00,20.8,18.9,29.73,North,349,2.0,8.0,92,0.00,,,0.01,VWS V14.01,2013-01-12 02:49:00,
2013-01-11 20:54:00,20.6,19.1,29.73,NW,320,5.0,8.0,94,0.00,,,0.01,VWS V14.01,2013-01-12 02:54:00,
2013-01-11 20:59:00,20.6,18.9,29.73,NW,325,3.0,10.0,93,0.00,,,0.01,VWS V14.01,2013-01-12 02:59:00,
2013-01-11 21:00:00,19.4,15.1,29.80,WNW,299,3.0,7.0,83,0.00,,,0.01,VWS V14.01,2013-01-12 03:00:00,
2013-01-11 21:04:00,20.5,18.0,29.74,NW,325,3.0,10.0,90,0.00,,,0.01,VWS V14.01,2013-01-12 03:04:00,
2013-01-11 21:09:00,20.3,17.3,29.74,North,359,10.0,11.0,88,0.00,,,0.01,VWS V14.01,2013-01-12 03:09:00,
2013-01-11 21:14:00,20.2,17.2,29.74,NNW,339,2.0,11.0,88,0.00,,,0.01,VWS V14.01,2013-01-12 03:14:00,
2013-01-11 21:15:00,19.4,15.9,29.80,WNW,296,2.0,8.0,86,0.00,,,0.01,VWS V14.01,2013-01-12 03:15:00,
2013-01-11 21:19:00,20.0,16.8,29.75,WNW,289,2.0,7.0,87,0.00,,,0.01,VWS V14.01,2013-01-12 03:19:00,
2013-01-11 21:24:00,20.0,15.4,29.75,NNW,328,2.0,7.0,82,0.00,,,0.01,VWS V14.01,2013-01-12 03:24:00,
2013-01-11 21:29:00,19.9,15.3,29.75,North,352,2.0,7.0,82,0.00,,,0.01,VWS V14.01,2013-01-12 03:29:00,
2013-01-11 21:30:00,19.1,15.9,29.81,WNW,287,5.0,7.0,87,0.00,,,0.01,VWS V14.01,2013-01-12 03:30:00,
2013-01-11 21:34:00,19.7,15.4,29.76,NNW,336,2.0,4.0,83,0.00,,,0.01,VWS V14.01,2013-01-12 03:34:00,
2013-01-11 21:39:00,19.7,15.9,29.76,NW,304,1.0,5.0,85,0.00,,,0.01,VWS V14.01,2013-01-12 03:39:00,
2013-01-11 21:44:00,19.5,16.0,29.76,NW,308,3.0,7.0,86,0.00,,,0.01,VWS V14.01,2013-01-12 03:44:00,
2013-01-11 21:45:00,19.1,15.1,29.82,West,281,3.0,7.0,84,0.00,,,0.01,VWS V14.01,2013-01-12 03:45:00,
2013-01-11 21:49:00,19.5,15.2,29.78,NW,315,1.0,5.0,83,0.00,,,0.01,VWS V14.01,2013-01-12 03:49:00,
2013-01-11 21:54:00,19.5,15.2,29.78,North,354,5.0,7.0,83,0.00,,,0.01,VWS V14.01,2013-01-12 03:54:00,
2013-01-11 21:59:00,19.4,14.8,29.78,NW,304,4.0,7.0,82,0.00,,,0.01,VWS V14.01,2013-01-12 03:59:00,
2013-01-11 22:00:00,19.2,13.8,29.84,WNW,282,2.0,7.0,79,0.00,,,0.01,VWS V14.01,2013-01-12 04:00:00,
2013-01-11 22:04:00,19.4,15.1,29.80,West,275,5.0,7.0,83,0.00,,,0.01,VWS V14.01,2013-01-12 04:04:00,
2013-01-11 22:09:00,19.4,15.1,29.80,WNW,289,8.0,8.0,83,0.00,,,0.01,VWS V14.01,2013-01-12 04:09:00,
2013-01-11 22:14:00,19.4,15.4,29.80,WNW,299,2.0,8.0,84,0.00,,,0.01,VWS V14.01,2013-01-12 04:14:00,
2013-01-11 22:15:00,18.6,14.3,29.84,West,280,4.0,5.0,83,0.00,,,0.01,VWS V14.01,2013-01-12 04:15:00,
2013-01-11 22:19:00,19.4,15.6,29.80,WNW,301,2.0,7.0,85,0.00,,,0.01,VWS V14.01,2013-01-12 04:19:00,
2013-01-11 22:24:00,19.2,15.7,29.80,WNW,294,2.0,7.0,86,0.00,,,0.01,VWS V14.01,2013-01-12 04:24:00,
2013-01-11 22:29:00,19.1,16.1,29.80,WNW,284,2.0,7.0,88,0.00,,,0.01,VWS V14.01,2013-01-12 04:29:00,
2013-01-11 22:30:00,18.3,14.0,29.86,West,280,1.0,7.0,83,0.00,,,0.01,VWS V14.01,2013-01-12 04:30:00,
2013-01-11 22:34:00,19.1,15.9,29.81,WNW,285,3.0,6.0,87,0.00,,,0.01,VWS V14.01,2013-01-12 04:34:00,
2013-01-11 22:39:00,18.9,15.9,29.81,WNW,288,2.0,7.0,88,0.00,,,0.01,VWS V14.01,2013-01-12 04:39:00,
2013-01-11 22:44:00,19.1,15.1,29.81,West,277,5.0,7.0,84,0.00,,,0.01,VWS V14.01,2013-01-12 04:44:00,
2013-01-11 22:45:00,17.8,13.2,29.88,WNW,282,2.0,6.0,82,0.00,,,0.01,VWS V14.01,2013-01-12 04:45:00,
2013-01-11 22:49:00,19.1,14.5,29.82,WNW,294,4.0,7.0,82,0.00,,,0.01,VWS V14.01,2013-01-12 04:49:00,
2013-01-11 22:54:00,19.4,14.0,29.82,WNW,292,2.0,7.0,79,0.00,,,0.01,VWS V14.01,2013-01-12 04:54:00,
2013-01-11 22:59:00,19.2,13.8,29.82,West,281,2.0,7.0,79,0.00,,,0.01,VWS V14.01,2013-01-12 04:59:00,
2013-01-11 23:00:00,19.2,13.8,29.82,WNW,282,2.0,7.0,79,0.00,,,0.01,VWS V14.01,2013-01-12 05:00:00,
2013-01-11 23:01:00,19.2,13.8,29.84,WNW,282,2.0,2.0,79,0.00,,,0.01,VWS V14.01,2013-01-12 05:01:00,
2013-01-11 23:06:00,18.9,14.3,29.84,WNW,285,2.0,5.0,82,0.00,,,0.01,VWS V14.01,2013-01-12 05:06:00,
2013-01-11 23:11:00,18.8,14.5,29.84,West,277,4.0,5.0,83,0.00,,,0.01,VWS V14.01,2013-01-12 05:11:00,
2013-01-11 23:15:00,17.3,12.5,29.88,WNW,288,3.0,7.0,81,0.00,,,0.00,VWS V14.01,2013-01-12 05:15:00,
2013-01-11 23:16:00,18.6,14.3,29.84,WNW,282,2.0,4.0,83,0.00,,,0.01,VWS V14.01,2013-01-12 05:16:00,
2013-01-11 23:21:00,18.6,14.0,29.84,WNW,284,5.0,7.0,82,0.00,,,0.01,VWS V14.01,2013-01-12 05:21:00,
2013-01-11 23:26:00,18.4,13.8,29.84,WNW,284,0.0,7.0,82,0.00,,,0.01,VWS V14.01,2013-01-12 05:26:00,
2013-01-11 23:30:00,17.2,12.7,29.89,WNW,299,2.0,6.0,82,0.00,,,0.00,VWS V14.01,2013-01-12 05:30:00,
2013-01-11 23:31:00,18.1,13.8,29.86,West,280,0.0,1.0,83,0.00,,,0.01,VWS V14.01,2013-01-12 05:31:00,
2013-01-11 23:36:00,18.0,14.0,29.86,West,281,0.0,5.0,84,0.00,,,0.01,VWS V14.01,2013-01-12 05:36:00,
2013-01-11 23:41:00,17.8,13.5,29.86,West,277,2.0,6.0,83,0.00,,,0.01,VWS V14.01,2013-01-12 05:41:00,
2013-01-11 23:45:00,17.2,12.9,29.89,WNW,288,1.0,5.0,83,0.00,,,0.00,VWS V14.01,2013-01-12 05:45:00,
2013-01-11 23:46:00,17.8,13.2,29.88,WNW,282,2.0,2.0,82,0.00,,,0.01,VWS V14.01,2013-01-12 05:46:00,
2013-01-11 23:51:00,17.8,13.0,29.88,West,280,3.0,6.0,81,0.00,,,0.01,VWS V14.01,2013-01-12 05:51:00,
2013-01-11 23:56:00,17.8,12.7,29.88,WNW,284,2.0,6.0,80,0.00,,,0.01,VWS V14.01,2013-01-12 05:56:00,